createdAt,value
2023-05-15T00:01:19.567Z,4.60
2023-05-15T00:06:12.758Z,4.97
2023-05-15T00:08:39.687Z,4.40
2023-05-15T00:11:06.347Z,4.55
2023-05-15T00:13:32.919Z,4.72
2023-05-15T00:18:26.447Z,5.20
2023-05-15T00:20:53.466Z,4.30
2023-05-15T00:23:20.031Z,4.70
2023-05-15T00:28:13.004Z,4.15
2023-05-15T00:33:06.568Z,3.83
2023-05-15T00:35:33.272Z,5.32
2023-05-15T00:37:59.850Z,4.68
2023-05-15T00:40:27.771Z,4.65
2023-05-15T00:42:55.523Z,4.70
2023-05-15T00:45:24.808Z,5.63
2023-05-15T00:47:51.941Z,5.10
2023-05-15T00:50:19.203Z,4.20
2023-05-15T00:52:45.946Z,4.45
2023-05-15T00:55:12.455Z,5.35
2023-05-15T01:00:10.497Z,5.38
2023-05-15T01:02:37.714Z,5.20
2023-05-15T01:05:05.241Z,5.57
2023-05-15T01:07:34.799Z,4.30
2023-05-15T01:10:04.364Z,4.68
2023-05-15T01:12:32.653Z,4.55
2023-05-15T01:14:59.658Z,4.93
2023-05-15T01:17:27.384Z,4.72
2023-05-15T01:19:57.005Z,5.20
2023-05-15T01:22:50.839Z,5.32
2023-05-15T01:25:20.080Z,4.47
2023-05-15T01:27:51.693Z,4.40
2023-05-15T01:30:23.587Z,4.97
2023-05-15T01:32:59.302Z,4.85
2023-05-15T01:35:33.500Z,4.60
2023-05-15T01:38:23.802Z,4.25
2023-05-15T01:40:59.978Z,4.50
2023-05-15T01:43:30.109Z,4.28
2023-05-15T01:45:58.844Z,4.10
2023-05-15T01:48:28.400Z,4.05
2023-05-15T01:51:02.241Z,4.55
2023-05-15T01:53:31.996Z,5.18
2023-05-15T01:55:59.796Z,4.90
2023-05-15T01:58:27.951Z,5.10
2023-05-15T02:00:56.208Z,6.25
2023-05-15T02:03:23.831Z,5.53
2023-05-15T02:05:51.915Z,6.25
2023-05-15T02:08:19.475Z,5.18
2023-05-15T02:10:47.445Z,4.63
2023-05-15T02:13:15.094Z,4.90
2023-05-15T02:15:41.653Z,4.70
2023-05-15T02:20:34.997Z,4.40
2023-05-15T02:23:01.665Z,7.03
2023-05-15T02:25:46.890Z,5.30
2023-05-15T02:28:33.952Z,6.15
2023-05-15T02:31:11.949Z,5.63
2023-05-15T02:33:52.882Z,5.20
2023-05-15T02:36:29.630Z,6.00
2023-05-15T02:38:58.852Z,5.80
2023-05-15T02:41:25.733Z,5.07
2023-05-15T02:43:55.542Z,6.60
2023-05-15T02:46:25.047Z,5.15
2023-05-15T02:48:54.582Z,5.95
2023-05-15T02:51:21.252Z,5.30
2023-05-15T02:53:47.995Z,5.85
2023-05-15T02:56:14.696Z,5.75
2023-05-15T03:01:08.222Z,6.28
2023-05-15T03:03:34.980Z,6.13
2023-05-15T03:06:01.616Z,6.13
2023-05-15T03:08:28.689Z,5.65
2023-05-15T03:10:55.332Z,6.72
2023-05-15T03:13:21.856Z,6.43
2023-05-15T03:15:48.589Z,6.13
2023-05-15T03:20:45.594Z,6.72
2023-05-15T03:23:12.093Z,6.63
2023-05-15T03:28:05.136Z,6.20
2023-05-15T03:30:31.685Z,6.70
2023-05-15T03:35:26.313Z,6.00
2023-05-15T03:37:53.028Z,7.05
2023-05-15T03:42:46.066Z,6.70
2023-05-15T03:45:12.647Z,7.32
2023-05-15T03:47:39.564Z,7.85
2023-05-15T03:50:06.605Z,7.10
2023-05-15T03:52:33.339Z,8.88
2023-05-15T03:54:59.865Z,7.43
2023-05-15T03:59:53.097Z,6.75
2023-05-15T04:04:46.117Z,6.95
2023-05-15T04:09:39.252Z,6.05
2023-05-15T04:12:06.063Z,7.18
2023-05-15T04:14:32.670Z,6.45
2023-05-15T04:16:59.200Z,7.13
2023-05-15T04:21:52.299Z,7.32
2023-05-15T04:26:45.248Z,7.03
2023-05-15T04:29:11.905Z,6.60
2023-05-15T04:31:38.749Z,7.53
2023-05-15T04:34:05.419Z,8.27
2023-05-15T04:36:32.612Z,7.13
2023-05-15T04:38:59.192Z,7.30
2023-05-15T04:43:52.239Z,7.57
2023-05-15T04:48:45.213Z,7.35
2023-05-15T04:53:38.824Z,6.30
2023-05-15T04:56:05.479Z,7.93
2023-05-15T04:58:32.085Z,6.75
2023-05-15T05:00:59.317Z,7.32
2023-05-15T05:03:27.678Z,8.07
2023-05-15T05:05:54.238Z,6.72
2023-05-15T05:10:47.357Z,6.88
2023-05-15T05:15:40.443Z,6.80
2023-05-15T05:18:07.138Z,7.47
2023-05-15T05:20:33.841Z,7.07
2023-05-15T05:25:27.040Z,7.43
2023-05-15T05:27:53.827Z,6.78
2023-05-15T05:30:22.295Z,6.53
2023-05-15T05:32:49.004Z,6.55
2023-05-15T05:35:15.624Z,6.90
2023-05-15T05:40:09.392Z,6.70
2023-05-15T05:42:35.944Z,6.75
2023-05-15T05:47:28.989Z,6.68
2023-05-15T05:49:55.713Z,6.53
2023-05-15T05:52:22.478Z,8.13
2023-05-15T05:54:49.154Z,7.72
2023-05-15T05:57:15.677Z,8.32
2023-05-15T06:02:09.411Z,7.32
2023-05-15T06:04:36.085Z,6.88
2023-05-15T06:07:03.340Z,7.97
2023-05-15T06:09:29.885Z,8.73
2023-05-15T06:14:23.314Z,7.63
2023-05-15T06:16:50.230Z,7.28
2023-05-15T06:19:16.979Z,6.95
2023-05-15T06:21:43.839Z,6.75
2023-05-15T06:24:10.385Z,7.68
2023-05-15T06:29:03.373Z,8.18
2023-05-15T06:33:56.509Z,8.30
2023-05-15T06:38:49.530Z,8.02
2023-05-15T06:41:16.213Z,7.30
2023-05-15T06:43:42.781Z,7.43
2023-05-15T06:48:36.589Z,7.32
2023-05-15T06:51:03.398Z,6.75
2023-05-15T06:53:30.427Z,8.02
2023-05-15T06:55:56.949Z,8.18
2023-05-15T07:00:49.977Z,7.38
2023-05-15T07:05:43.509Z,8.13
2023-05-15T07:08:10.137Z,7.00
2023-05-15T07:13:03.194Z,7.10
2023-05-15T07:17:56.354Z,7.35
2023-05-15T07:20:23.113Z,6.93
2023-05-15T07:22:56.406Z,7.47
2023-05-15T07:25:25.020Z,7.07
2023-05-15T07:27:52.028Z,7.47
2023-05-15T07:32:45.514Z,7.20
2023-05-15T07:35:12.183Z,6.20
2023-05-15T07:37:39.135Z,7.20
2023-05-15T07:40:06.616Z,7.32
2023-05-15T07:42:33.400Z,6.78
2023-05-15T07:45:00.019Z,7.28
2023-05-15T07:47:26.606Z,6.30
2023-05-15T07:52:19.822Z,6.80
2023-05-15T07:57:13.100Z,5.18
2023-05-15T07:59:39.749Z,6.32
2023-05-15T08:02:06.950Z,5.95
2023-05-15T08:04:33.675Z,5.90
2023-05-15T08:07:00.441Z,6.38
2023-05-15T08:09:26.951Z,5.82
2023-05-15T08:14:22.531Z,5.47
2023-05-15T08:16:50.374Z,6.93
2023-05-15T08:19:17.152Z,6.05
2023-05-15T08:21:44.241Z,6.72
2023-05-15T08:24:10.934Z,6.15
2023-05-15T08:26:37.475Z,5.75
2023-05-15T08:31:30.502Z,5.85
2023-05-15T08:36:23.609Z,4.95
2023-05-15T08:38:50.277Z,5.65
2023-05-15T08:44:09.350Z,5.03
2023-05-15T08:46:36.380Z,5.38
2023-05-15T08:49:25.047Z,5.35
2023-05-15T08:51:53.150Z,5.47
2023-05-15T08:54:20.157Z,5.68
2023-05-15T08:56:47.146Z,5.40
2023-05-15T08:59:13.742Z,4.60
2023-05-15T09:01:40.356Z,5.25
2023-05-15T09:04:07.227Z,4.63
2023-05-15T09:06:34.658Z,4.85
2023-05-15T09:09:03.806Z,5.00
2023-05-15T09:11:31.924Z,4.10
2023-05-15T09:13:59.820Z,3.95
2023-05-15T09:16:26.628Z,4.53
2023-05-15T09:18:54.081Z,4.32
2023-05-15T09:21:29.117Z,4.20
2023-05-15T09:24:14.978Z,3.80
2023-05-15T09:26:42.870Z,4.18
2023-05-15T09:29:09.447Z,4.25
2023-05-15T09:31:36.191Z,3.80
2023-05-15T09:34:04.678Z,3.50
2023-05-15T09:36:32.523Z,4.10
2023-05-15T09:39:00.632Z,4.40
2023-05-15T09:41:28.093Z,5.22
2023-05-15T09:43:56.700Z,6.63
2023-05-15T09:46:24.024Z,5.97
2023-05-15T09:48:55.492Z,6.82
2023-05-15T09:51:22.354Z,6.60
2023-05-15T09:53:53.277Z,6.63
2023-05-15T09:56:19.981Z,7.18
2023-05-15T09:58:54.557Z,7.68
2023-05-15T10:01:23.035Z,6.63
2023-05-15T10:03:59.747Z,8.10
2023-05-15T10:06:26.558Z,6.93
2023-05-15T10:08:54.423Z,6.13
2023-05-15T10:11:23.815Z,6.47
2023-05-15T10:13:50.404Z,5.03
2023-05-15T10:16:21.608Z,6.40
2023-05-15T10:18:51.260Z,5.70
2023-05-15T10:21:20.516Z,6.85
2023-05-15T10:23:49.637Z,7.72
2023-05-15T10:26:23.885Z,8.15
2023-05-15T10:28:51.611Z,7.07
2023-05-15T10:31:18.730Z,6.60
2023-05-15T10:33:46.016Z,4.65
2023-05-15T10:36:14.541Z,4.32
2023-05-15T10:38:43.116Z,3.80
2023-05-15T10:41:17.804Z,4.18
2023-05-15T10:43:45.751Z,4.15
2023-05-15T10:46:13.821Z,4.28
2023-05-15T10:48:40.573Z,4.97
2023-05-15T10:51:15.597Z,4.57
2023-05-15T10:53:43.662Z,4.35
2023-05-15T10:56:18.930Z,4.28
2023-05-15T10:58:49.714Z,4.22
2023-05-15T11:01:27.987Z,4.20
2023-05-15T11:04:09.508Z,4.15
2023-05-15T11:06:37.664Z,4.43
2023-05-15T11:09:22.381Z,5.40
2023-05-15T11:11:51.820Z,4.80
2023-05-15T11:14:22.738Z,4.78
2023-05-15T11:16:55.619Z,5.07
2023-05-15T11:19:28.402Z,5.20
2023-05-15T11:24:58.936Z,4.88
2023-05-15T11:27:29.465Z,3.97
2023-05-15T11:30:05.131Z,4.63
2023-05-15T11:32:39.849Z,4.72
2023-05-15T11:35:29.418Z,4.45
2023-05-15T11:38:02.399Z,4.38
2023-05-15T11:40:48.204Z,4.13
2023-05-15T11:43:31.706Z,4.43
2023-05-15T11:46:04.787Z,5.10
2023-05-15T11:48:33.832Z,5.63
2023-05-15T11:51:04.323Z,4.25
2023-05-15T11:53:32.022Z,3.90
2023-05-15T11:55:59.268Z,2.92
2023-05-15T11:58:26.470Z,2.83
2023-05-15T12:00:53.900Z,2.95
2023-05-15T12:03:34.194Z,3.55
2023-05-15T12:06:02.957Z,4.15
2023-05-15T12:08:33.872Z,4.28
2023-05-15T12:11:02.086Z,4.65
2023-05-15T12:13:29.454Z,4.22
2023-05-15T12:15:56.952Z,4.95
2023-05-15T12:18:23.789Z,4.45
2023-05-15T12:20:53.081Z,3.78
2023-05-15T12:23:22.756Z,4.40
2023-05-15T12:25:54.975Z,4.25
2023-05-15T12:28:22.232Z,3.83
2023-05-15T12:30:49.685Z,4.10
2023-05-15T12:33:16.729Z,4.57
2023-05-15T12:35:44.973Z,4.78
2023-05-15T12:38:18.452Z,4.15
2023-05-15T12:40:52.154Z,5.65
2023-05-15T12:43:18.902Z,4.05
2023-05-15T12:45:45.561Z,5.57
2023-05-15T12:48:15.286Z,4.97
2023-05-15T12:50:44.702Z,4.65
2023-05-15T12:53:16.416Z,4.30
2023-05-15T12:55:46.209Z,4.78
2023-05-15T12:58:14.956Z,4.40
2023-05-15T13:00:44.989Z,3.90
2023-05-15T13:03:13.270Z,4.72
2023-05-15T13:05:43.458Z,4.13
2023-05-15T13:08:15.207Z,4.28
2023-05-15T13:10:41.803Z,4.45
2023-05-15T13:13:08.389Z,4.10
2023-05-15T13:15:45.749Z,3.63
2023-05-15T13:18:14.926Z,4.30
2023-05-15T13:20:46.393Z,3.97
2023-05-15T13:23:20.926Z,3.67
2023-05-15T13:25:47.765Z,3.72
2023-05-15T13:28:14.476Z,3.25
2023-05-15T13:30:42.109Z,4.07
2023-05-15T13:33:12.721Z,3.67
2023-05-15T13:35:41.240Z,3.70
2023-05-15T13:38:11.130Z,4.55
2023-05-15T13:40:38.680Z,4.05
2023-05-15T13:43:08.565Z,3.85
2023-05-15T13:45:35.208Z,4.38
2023-05-15T13:48:03.158Z,4.80
2023-05-15T13:50:29.713Z,4.40
2023-05-15T13:55:23.496Z,4.55
2023-05-15T13:57:51.343Z,4.03
2023-05-15T14:00:18.647Z,4.10
2023-05-15T14:02:45.363Z,4.20
2023-05-15T14:05:14.101Z,4.05
2023-05-15T14:07:41.419Z,4.15
2023-05-15T14:10:09.161Z,3.97
2023-05-15T14:12:36.896Z,3.85
2023-05-15T14:15:03.880Z,3.95
2023-05-15T14:17:30.490Z,3.85
2023-05-15T14:19:57.059Z,3.53
2023-05-15T14:22:25.068Z,4.65
2023-05-15T14:24:55.286Z,4.35
2023-05-15T14:27:21.914Z,3.95
2023-05-15T14:29:49.191Z,4.85
2023-05-15T14:32:16.873Z,4.90
2023-05-15T14:34:43.785Z,4.30
2023-05-15T14:39:37.281Z,4.38
2023-05-15T14:42:04.154Z,3.83
2023-05-15T14:44:30.663Z,3.95
2023-05-15T14:47:12.800Z,4.53
2023-05-15T14:49:40.444Z,3.40
2023-05-15T14:52:10.150Z,4.07
2023-05-15T14:54:37.996Z,4.15
2023-05-15T14:57:04.615Z,3.88
2023-05-15T14:59:31.252Z,4.38
2023-05-15T15:01:58.022Z,4.50
2023-05-15T15:04:26.653Z,4.28
2023-05-15T15:06:56.780Z,4.85
2023-05-15T15:09:24.011Z,4.75
2023-05-15T15:11:51.343Z,5.13
2023-05-15T15:14:18.336Z,4.68
2023-05-15T15:16:46.119Z,4.60
2023-05-15T15:19:13.755Z,5.00
2023-05-15T15:21:40.635Z,5.25
2023-05-15T15:24:07.536Z,5.53
2023-05-15T15:26:34.173Z,5.78
2023-05-15T15:29:00.975Z,5.32
2023-05-15T15:31:29.087Z,4.85
2023-05-15T15:33:56.671Z,5.53
2023-05-15T15:36:24.254Z,5.05
2023-05-15T15:38:50.875Z,5.32
2023-05-15T15:41:17.470Z,4.85
2023-05-15T15:43:44.083Z,6.20
2023-05-15T15:48:37.208Z,5.68
2023-05-15T15:53:34.101Z,5.95
2023-05-15T15:56:02.283Z,4.35
2023-05-15T15:58:29.925Z,4.10
2023-05-15T16:00:57.493Z,3.90
2023-05-15T16:03:24.306Z,3.53
2023-05-15T16:05:51.728Z,4.03
2023-05-15T16:08:18.407Z,4.05
2023-05-15T16:10:44.907Z,3.60
2023-05-15T16:15:38.285Z,3.50
2023-05-15T16:20:31.974Z,3.03
2023-05-15T16:22:59.414Z,3.17
2023-05-15T16:27:52.414Z,3.67
2023-05-15T16:32:45.578Z,3.97
2023-05-15T16:35:12.167Z,4.53
2023-05-15T16:37:38.936Z,4.50
2023-05-15T16:40:06.505Z,4.70
2023-05-15T16:42:38.096Z,4.38
2023-05-15T16:45:05.661Z,4.63
2023-05-15T16:47:32.290Z,3.97
2023-05-15T16:49:59.110Z,4.80
2023-05-15T16:52:25.779Z,4.57
2023-05-15T16:54:52.283Z,4.30
2023-05-15T16:59:45.537Z,3.97
2023-05-15T17:02:12.280Z,4.95
2023-05-15T17:04:38.895Z,4.20
2023-05-15T17:09:32.899Z,3.90
2023-05-15T17:11:59.723Z,4.60
2023-05-15T17:14:26.561Z,4.10
2023-05-15T17:16:53.097Z,3.67
2023-05-15T17:21:46.273Z,4.60
2023-05-15T17:24:15.848Z,4.15
2023-05-15T17:26:42.576Z,4.57
2023-05-15T17:29:10.823Z,4.03
2023-05-15T17:31:38.649Z,4.10
2023-05-15T17:34:05.271Z,4.60
2023-05-15T17:38:58.281Z,3.97
2023-05-15T17:43:51.831Z,4.20
2023-05-15T17:46:18.417Z,3.80
2023-05-15T17:51:11.442Z,4.13
2023-05-15T17:56:04.596Z,4.57
2023-05-15T17:58:31.154Z,4.10
2023-05-15T18:00:57.794Z,4.90
2023-05-15T18:05:51.830Z,3.65
2023-05-15T18:08:18.569Z,4.43
2023-05-15T18:10:45.793Z,4.30
2023-05-15T18:13:12.755Z,4.15
2023-05-15T18:15:39.630Z,4.95
2023-05-15T18:18:06.349Z,3.88
2023-05-15T18:20:32.875Z,4.05
2023-05-15T18:25:26.709Z,4.05
2023-05-15T18:27:53.671Z,4.35
2023-05-15T18:30:20.292Z,5.53
2023-05-15T18:32:46.913Z,5.13
2023-05-15T18:35:13.710Z,5.13
2023-05-15T18:37:40.270Z,4.88
2023-05-15T18:42:33.740Z,5.43
2023-05-15T18:45:00.258Z,4.95
2023-05-15T18:49:53.499Z,5.95
2023-05-15T18:54:48.021Z,4.90
2023-05-15T18:57:14.570Z,6.93
2023-05-15T19:02:09.631Z,4.72
2023-05-15T19:04:36.520Z,5.50
2023-05-15T19:07:03.170Z,5.60
2023-05-15T19:09:29.993Z,5.97
2023-05-15T19:11:56.556Z,5.43
2023-05-15T19:16:49.620Z,5.38
2023-05-15T19:19:16.370Z,5.22
2023-05-15T19:21:43.041Z,5.05
2023-05-15T19:26:36.068Z,5.63
2023-05-15T19:31:31.823Z,6.03
2023-05-15T19:33:59.218Z,5.35
2023-05-15T19:36:25.982Z,4.50
2023-05-15T19:38:52.665Z,4.60
2023-05-15T19:41:19.203Z,5.50
2023-05-15T19:46:13.616Z,5.57
2023-05-15T19:48:40.268Z,5.07
2023-05-15T19:53:33.828Z,4.82
2023-05-15T19:56:00.365Z,4.90
2023-05-15T20:00:54.235Z,5.45
2023-05-15T20:03:21.749Z,5.50
2023-05-15T20:05:48.727Z,5.82
2023-05-15T20:08:17.046Z,5.75
2023-05-15T20:10:44.561Z,6.07
2023-05-15T20:13:11.665Z,5.57
2023-05-15T20:15:39.987Z,6.97
2023-05-15T20:18:07.534Z,5.88
2023-05-15T20:20:35.828Z,6.28
2023-05-15T20:23:02.403Z,5.40
2023-05-15T20:27:58.624Z,5.82
2023-05-15T20:30:27.034Z,5.57
2023-05-15T20:32:53.902Z,5.28
2023-05-15T20:35:20.873Z,5.25
2023-05-15T20:37:47.556Z,5.43
2023-05-15T20:40:15.848Z,5.40
2023-05-15T20:42:42.627Z,5.00
2023-05-15T20:45:10.078Z,5.97
2023-05-15T20:47:36.830Z,6.03
2023-05-15T20:50:03.785Z,6.32
2023-05-15T20:52:30.721Z,5.50
2023-05-15T20:54:57.512Z,6.40
2023-05-15T20:57:24.149Z,5.90
2023-05-15T20:59:50.890Z,6.63
2023-05-15T21:02:17.396Z,6.20
2023-05-15T21:07:11.395Z,6.85
2023-05-15T21:09:38.126Z,5.80
2023-05-15T21:12:05.025Z,6.75
2023-05-15T21:14:31.638Z,6.55
2023-05-15T21:16:58.272Z,7.13
2023-05-15T21:19:24.877Z,6.65
2023-05-15T21:24:18.071Z,6.60
2023-05-15T21:26:44.730Z,6.57
2023-05-15T21:29:11.312Z,7.00
2023-05-15T21:34:04.452Z,6.78
2023-05-15T21:36:31.382Z,6.57
2023-05-15T21:38:57.955Z,6.78
2023-05-15T21:43:52.693Z,7.35
2023-05-15T21:46:19.414Z,6.38
2023-05-15T21:48:46.526Z,6.93
2023-05-15T21:51:13.184Z,6.80
2023-05-15T21:53:39.769Z,8.05
2023-05-15T21:56:06.913Z,7.00
2023-05-15T21:58:33.541Z,7.47
2023-05-15T22:17:27.194Z,7.20
2023-05-15T22:19:54.166Z,7.03
2023-05-15T22:22:21.620Z,8.02
2023-05-15T22:24:48.478Z,7.97
2023-05-15T22:27:16.723Z,7.60
2023-05-15T22:29:43.543Z,7.97
2023-05-15T22:32:10.653Z,7.68
2023-05-15T22:34:37.249Z,7.38
2023-05-15T22:39:30.851Z,7.07
2023-05-15T22:41:57.498Z,7.95
2023-05-15T22:44:24.036Z,7.47
2023-05-15T22:49:19.261Z,7.50
2023-05-15T22:51:45.853Z,8.02
2023-05-15T22:56:38.853Z,7.32
2023-05-15T23:01:32.347Z,8.50
2023-05-15T23:03:58.949Z,8.18
2023-05-15T23:08:51.987Z,7.63
2023-05-15T23:13:44.966Z,8.18
2023-05-15T23:18:38.182Z,8.63
2023-05-15T23:21:05.068Z,7.43
2023-05-15T23:23:31.775Z,7.05
2023-05-15T23:25:58.324Z,8.27
2023-05-15T23:30:54.935Z,6.88
2023-05-15T23:33:21.877Z,8.00
2023-05-15T23:35:48.407Z,7.80
2023-05-15T23:40:41.437Z,8.75
2023-05-15T23:45:35.153Z,7.65
2023-05-15T23:48:01.805Z,8.98
2023-05-15T23:50:28.658Z,7.57
2023-05-15T23:52:55.521Z,8.95
2023-05-15T23:55:22.084Z,8.43
